sensor_id;sensor_type;location;lat;lon;timestamp;P1;durP1;ratioP1;P2;durP2;ratioP2
36205;SDS011;22242;48.796;9.930;2023-03-01T00:02:16;25.98;;;14.13;;
36205;SDS011;22242;48.796;9.930;2023-03-01T00:04:43;27.38;;;14.38;;
36205;SDS011;22242;48.796;9.930;2023-03-01T00:07:10;28.63;;;14.60;;
36205;SDS011;22242;48.796;9.930;2023-03-01T00:09:40;32.83;;;13.85;;
36205;SDS011;22242;48.796;9.930;2023-03-01T00:12:07;27.27;;;14.00;;
36205;SDS011;22242;48.796;9.930;2023-03-01T00:14:35;31.25;;;14.23;;
36205;SDS011;22242;48.796;9.930;2023-03-01T00:17:02;27.20;;;13.70;;
36205;SDS011;22242;48.796;9.930;2023-03-01T00:19:29;28.35;;;13.60;;
36205;SDS011;22242;48.796;9.930;2023-03-01T00:21:58;28.80;;;14.10;;
36205;SDS011;22242;48.796;9.930;2023-03-01T00:24:25;30.27;;;14.50;;
36205;SDS011;22242;48.796;9.930;2023-03-01T00:26:54;27.40;;;13.90;;
36205;SDS011;22242;48.796;9.930;2023-03-01T00:29:22;26.65;;;13.48;;
36205;SDS011;22242;48.796;9.930;2023-03-01T00:31:49;29.92;;;14.35;;
36205;SDS011;22242;48.796;9.930;2023-03-01T00:34:17;31.10;;;14.55;;
36205;SDS011;22242;48.796;9.930;2023-03-01T00:36:44;26.92;;;14.30;;
36205;SDS011;22242;48.796;9.930;2023-03-01T00:39:12;26.70;;;13.68;;
36205;SDS011;22242;48.796;9.930;2023-03-01T00:41:41;30.98;;;14.50;;
36205;SDS011;22242;48.796;9.930;2023-03-01T00:44:10;29.92;;;13.95;;
36205;SDS011;22242;48.796;9.930;2023-03-01T00:46:37;28.40;;;13.63;;
36205;SDS011;22242;48.796;9.930;2023-03-01T00:49:05;27.80;;;14.20;;
36205;SDS011;22242;48.796;9.930;2023-03-01T00:51:32;33.58;;;15.20;;
36205;SDS011;22242;48.796;9.930;2023-03-01T00:54:00;27.05;;;13.75;;
36205;SDS011;22242;48.796;9.930;2023-03-01T00:56:28;30.70;;;14.50;;
36205;SDS011;22242;48.796;9.930;2023-03-01T00:58:56;27.10;;;13.90;;
36205;SDS011;22242;48.796;9.930;2023-03-01T01:01:25;29.83;;;14.35;;
36205;SDS011;22242;48.796;9.930;2023-03-01T01:03:56;29.38;;;13.88;;
36205;SDS011;22242;48.796;9.930;2023-03-01T01:06:24;31.48;;;14.73;;
36205;SDS011;22242;48.796;9.930;2023-03-01T01:08:54;32.40;;;14.93;;
36205;SDS011;22242;48.796;9.930;2023-03-01T01:11:44;29.35;;;14.75;;
36205;SDS011;22242;48.796;9.930;2023-03-01T01:14:12;28.60;;;14.80;;
36205;SDS011;22242;48.796;9.930;2023-03-01T01:16:41;29.42;;;14.82;;
36205;SDS011;22242;48.796;9.930;2023-03-01T01:19:08;28.27;;;14.25;;
36205;SDS011;22242;48.796;9.930;2023-03-01T01:21:36;25.92;;;14.05;;
36205;SDS011;22242;48.796;9.930;2023-03-01T01:24:03;31.40;;;15.27;;
36205;SDS011;22242;48.796;9.930;2023-03-01T01:26:31;31.17;;;15.38;;
36205;SDS011;22242;48.796;9.930;2023-03-01T01:29:00;33.03;;;16.02;;
36205;SDS011;22242;48.796;9.930;2023-03-01T01:31:29;31.42;;;16.58;;
36205;SDS011;22242;48.796;9.930;2023-03-01T01:33:58;34.95;;;16.98;;
36205;SDS011;22242;48.796;9.930;2023-03-01T01:36:27;30.17;;;15.25;;
36205;SDS011;22242;48.796;9.930;2023-03-01T01:38:54;32.80;;;16.13;;
36205;SDS011;22242;48.796;9.930;2023-03-01T01:41:21;36.13;;;16.45;;
36205;SDS011;22242;48.796;9.930;2023-03-01T01:43:49;32.92;;;16.52;;
36205;SDS011;22242;48.796;9.930;2023-03-01T01:46:31;33.23;;;16.93;;
36205;SDS011;22242;48.796;9.930;2023-03-01T01:49:03;34.67;;;16.48;;
36205;SDS011;22242;48.796;9.930;2023-03-01T01:51:35;37.22;;;16.52;;
36205;SDS011;22242;48.796;9.930;2023-03-01T01:54:08;32.42;;;16.10;;
36205;SDS011;22242;48.796;9.930;2023-03-01T01:56:38;34.20;;;16.00;;
36205;SDS011;22242;48.796;9.930;2023-03-01T01:59:07;39.55;;;16.95;;
36205;SDS011;22242;48.796;9.930;2023-03-01T02:01:36;29.52;;;15.98;;
36205;SDS011;22242;48.796;9.930;2023-03-01T02:04:05;32.58;;;17.23;;
36205;SDS011;22242;48.796;9.930;2023-03-01T02:06:33;34.92;;;16.85;;
36205;SDS011;22242;48.796;9.930;2023-03-01T02:09:06;34.80;;;15.80;;
36205;SDS011;22242;48.796;9.930;2023-03-01T02:11:37;34.15;;;16.73;;
36205;SDS011;22242;48.796;9.930;2023-03-01T02:14:04;34.45;;;16.17;;
36205;SDS011;22242;48.796;9.930;2023-03-01T02:16:32;31.10;;;16.45;;
36205;SDS011;22242;48.796;9.930;2023-03-01T02:18:59;32.75;;;16.70;;
36205;SDS011;22242;48.796;9.930;2023-03-01T02:21:33;33.63;;;15.55;;
36205;SDS011;22242;48.796;9.930;2023-03-01T02:24:07;34.72;;;17.25;;
36205;SDS011;22242;48.796;9.930;2023-03-01T02:26:45;30.50;;;15.70;;
36205;SDS011;22242;48.796;9.930;2023-03-01T02:29:16;38.65;;;17.65;;
36205;SDS011;22242;48.796;9.930;2023-03-01T02:31:43;36.17;;;17.58;;
36205;SDS011;22242;48.796;9.930;2023-03-01T02:34:12;38.10;;;17.65;;
36205;SDS011;22242;48.796;9.930;2023-03-01T02:36:42;37.58;;;17.90;;
36205;SDS011;22242;48.796;9.930;2023-03-01T02:39:14;32.90;;;16.90;;
36205;SDS011;22242;48.796;9.930;2023-03-01T02:41:45;38.17;;;18.00;;
36205;SDS011;22242;48.796;9.930;2023-03-01T02:44:14;37.53;;;18.65;;
36205;SDS011;22242;48.796;9.930;2023-03-01T02:46:43;33.05;;;17.65;;
36205;SDS011;22242;48.796;9.930;2023-03-01T02:49:18;38.85;;;17.98;;
36205;SDS011;22242;48.796;9.930;2023-03-01T02:51:48;32.78;;;17.67;;
36205;SDS011;22242;48.796;9.930;2023-03-01T02:54:24;34.47;;;17.42;;
36205;SDS011;22242;48.796;9.930;2023-03-01T02:56:55;36.47;;;16.85;;
36205;SDS011;22242;48.796;9.930;2023-03-01T02:59:24;36.03;;;18.13;;
36205;SDS011;22242;48.796;9.930;2023-03-01T03:01:56;38.53;;;18.50;;
36205;SDS011;22242;48.796;9.930;2023-03-01T03:04:24;39.88;;;19.45;;
36205;SDS011;22242;48.796;9.930;2023-03-01T03:06:51;39.72;;;19.27;;
36205;SDS011;22242;48.796;9.930;2023-03-01T03:09:18;37.78;;;17.80;;
36205;SDS011;22242;48.796;9.930;2023-03-01T03:11:45;33.70;;;17.35;;
36205;SDS011;22242;48.796;9.930;2023-03-01T03:14:14;37.50;;;18.10;;
36205;SDS011;22242;48.796;9.930;2023-03-01T03:19:21;42.63;;;18.65;;
36205;SDS011;22242;48.796;9.930;2023-03-01T03:21:48;36.15;;;17.90;;
36205;SDS011;22242;48.796;9.930;2023-03-01T03:24:15;33.88;;;16.77;;
36205;SDS011;22242;48.796;9.930;2023-03-01T03:26:43;40.97;;;18.42;;
36205;SDS011;22242;48.796;9.930;2023-03-01T03:29:10;34.60;;;16.95;;
36205;SDS011;22242;48.796;9.930;2023-03-01T03:31:37;34.85;;;18.40;;
36205;SDS011;22242;48.796;9.930;2023-03-01T03:34:04;41.13;;;18.48;;
36205;SDS011;22242;48.796;9.930;2023-03-01T03:36:33;41.00;;;19.08;;
36205;SDS011;22242;48.796;9.930;2023-03-01T03:39:00;38.75;;;18.08;;
36205;SDS011;22242;48.796;9.930;2023-03-01T03:41:27;35.33;;;17.40;;
36205;SDS011;22242;48.796;9.930;2023-03-01T03:43:54;35.17;;;17.02;;
36205;SDS011;22242;48.796;9.930;2023-03-01T03:46:21;35.13;;;17.52;;
36205;SDS011;22242;48.796;9.930;2023-03-01T03:48:48;39.38;;;18.45;;
36205;SDS011;22242;48.796;9.930;2023-03-01T03:51:16;38.70;;;18.23;;
36205;SDS011;22242;48.796;9.930;2023-03-01T03:53:45;35.55;;;18.02;;
36205;SDS011;22242;48.796;9.930;2023-03-01T03:56:12;42.50;;;18.75;;
36205;SDS011;22242;48.796;9.930;2023-03-01T03:58:39;36.10;;;17.50;;
36205;SDS011;22242;48.796;9.930;2023-03-01T04:01:06;42.30;;;19.23;;
36205;SDS011;22242;48.796;9.930;2023-03-01T04:03:33;35.88;;;17.27;;
36205;SDS011;22242;48.796;9.930;2023-03-01T04:06:02;39.30;;;18.52;;
36205;SDS011;22242;48.796;9.930;2023-03-01T04:08:30;38.92;;;18.02;;
36205;SDS011;22242;48.796;9.930;2023-03-01T04:10:59;32.05;;;15.98;;
36205;SDS011;22242;48.796;9.930;2023-03-01T04:13:49;33.10;;;17.75;;
36205;SDS011;22242;48.796;9.930;2023-03-01T04:16:17;33.25;;;17.40;;
36205;SDS011;22242;48.796;9.930;2023-03-01T04:18:45;34.15;;;17.65;;
36205;SDS011;22242;48.796;9.930;2023-03-01T04:21:12;32.47;;;16.75;;
36205;SDS011;22242;48.796;9.930;2023-03-01T04:23:40;37.58;;;18.33;;
36205;SDS011;22242;48.796;9.930;2023-03-01T04:26:08;36.35;;;18.00;;
36205;SDS011;22242;48.796;9.930;2023-03-01T04:28:37;34.55;;;17.70;;
36205;SDS011;22242;48.796;9.930;2023-03-01T04:31:05;40.45;;;18.08;;
36205;SDS011;22242;48.796;9.930;2023-03-01T04:33:39;35.65;;;17.30;;
36205;SDS011;22242;48.796;9.930;2023-03-01T04:36:08;38.63;;;18.85;;
36205;SDS011;22242;48.796;9.930;2023-03-01T04:38:37;37.42;;;17.80;;
36205;SDS011;22242;48.796;9.930;2023-03-01T04:41:04;37.10;;;18.08;;
36205;SDS011;22242;48.796;9.930;2023-03-01T04:43:34;40.15;;;18.25;;
36205;SDS011;22242;48.796;9.930;2023-03-01T04:46:02;34.55;;;17.75;;
36205;SDS011;22242;48.796;9.930;2023-03-01T04:48:29;41.33;;;18.58;;
36205;SDS011;22242;48.796;9.930;2023-03-01T04:50:57;35.60;;;18.17;;
36205;SDS011;22242;48.796;9.930;2023-03-01T04:53:25;35.03;;;18.30;;
36205;SDS011;22242;48.796;9.930;2023-03-01T04:55:53;38.60;;;18.58;;
36205;SDS011;22242;48.796;9.930;2023-03-01T04:58:21;38.22;;;17.73;;
36205;SDS011;22242;48.796;9.930;2023-03-01T05:00:50;36.00;;;17.15;;
36205;SDS011;22242;48.796;9.930;2023-03-01T05:03:17;33.25;;;17.45;;
36205;SDS011;22242;48.796;9.930;2023-03-01T05:05:45;40.05;;;19.30;;
36205;SDS011;22242;48.796;9.930;2023-03-01T05:08:13;40.33;;;18.83;;
36205;SDS011;22242;48.796;9.930;2023-03-01T05:10:44;38.47;;;18.75;;
36205;SDS011;22242;48.796;9.930;2023-03-01T05:13:13;34.30;;;17.38;;
36205;SDS011;22242;48.796;9.930;2023-03-01T05:15:46;34.67;;;17.33;;
36205;SDS011;22242;48.796;9.930;2023-03-01T05:18:15;32.58;;;17.02;;
36205;SDS011;22242;48.796;9.930;2023-03-01T05:20:42;35.38;;;17.63;;
36205;SDS011;22242;48.796;9.930;2023-03-01T05:23:10;37.65;;;18.38;;
36205;SDS011;22242;48.796;9.930;2023-03-01T05:25:37;37.65;;;17.58;;
36205;SDS011;22242;48.796;9.930;2023-03-01T05:28:06;41.10;;;20.15;;
36205;SDS011;22242;48.796;9.930;2023-03-01T05:30:36;40.55;;;20.05;;
36205;SDS011;22242;48.796;9.930;2023-03-01T05:33:05;39.10;;;19.48;;
36205;SDS011;22242;48.796;9.930;2023-03-01T05:35:40;35.50;;;18.40;;
36205;SDS011;22242;48.796;9.930;2023-03-01T05:38:08;38.20;;;18.58;;
36205;SDS011;22242;48.796;9.930;2023-03-01T05:40:38;39.38;;;18.55;;
36205;SDS011;22242;48.796;9.930;2023-03-01T05:43:06;41.40;;;19.25;;
36205;SDS011;22242;48.796;9.930;2023-03-01T05:45:35;38.83;;;18.95;;
36205;SDS011;22242;48.796;9.930;2023-03-01T05:48:04;38.50;;;18.75;;
36205;SDS011;22242;48.796;9.930;2023-03-01T05:50:32;37.75;;;19.00;;
36205;SDS011;22242;48.796;9.930;2023-03-01T05:53:03;39.38;;;18.33;;
36205;SDS011;22242;48.796;9.930;2023-03-01T05:55:33;40.40;;;18.63;;
36205;SDS011;22242;48.796;9.930;2023-03-01T05:58:02;39.55;;;19.92;;
36205;SDS011;22242;48.796;9.930;2023-03-01T06:00:31;39.47;;;19.50;;
36205;SDS011;22242;48.796;9.930;2023-03-01T06:02:59;42.78;;;20.02;;
36205;SDS011;22242;48.796;9.930;2023-03-01T06:05:26;41.63;;;19.38;;
36205;SDS011;22242;48.796;9.930;2023-03-01T06:07:55;45.00;;;20.33;;
36205;SDS011;22242;48.796;9.930;2023-03-01T06:10:26;35.35;;;18.15;;
36205;SDS011;22242;48.796;9.930;2023-03-01T06:12:54;39.53;;;19.20;;
36205;SDS011;22242;48.796;9.930;2023-03-01T06:15:21;43.65;;;19.67;;
36205;SDS011;22242;48.796;9.930;2023-03-01T06:17:49;37.38;;;18.20;;
36205;SDS011;22242;48.796;9.930;2023-03-01T06:20:18;44.85;;;19.20;;
36205;SDS011;22242;48.796;9.930;2023-03-01T06:22:46;41.22;;;19.10;;
36205;SDS011;22242;48.796;9.930;2023-03-01T06:25:15;40.30;;;18.65;;
36205;SDS011;22242;48.796;9.930;2023-03-01T06:27:45;39.72;;;18.63;;
36205;SDS011;22242;48.796;9.930;2023-03-01T06:30:15;42.30;;;19.30;;
36205;SDS011;22242;48.796;9.930;2023-03-01T06:32:43;44.45;;;20.35;;
36205;SDS011;22242;48.796;9.930;2023-03-01T06:35:10;43.35;;;20.73;;
36205;SDS011;22242;48.796;9.930;2023-03-01T06:37:39;38.60;;;18.95;;
36205;SDS011;22242;48.796;9.930;2023-03-01T06:40:07;44.85;;;20.50;;
36205;SDS011;22242;48.796;9.930;2023-03-01T06:42:37;52.95;;;23.80;;
36205;SDS011;22242;48.796;9.930;2023-03-01T06:45:08;43.55;;;20.60;;
36205;SDS011;22242;48.796;9.930;2023-03-01T06:47:36;47.50;;;20.00;;
36205;SDS011;22242;48.796;9.930;2023-03-01T06:50:03;44.40;;;20.45;;
36205;SDS011;22242;48.796;9.930;2023-03-01T06:52:31;45.78;;;20.02;;
36205;SDS011;22242;48.796;9.930;2023-03-01T06:54:58;45.72;;;22.10;;
36205;SDS011;22242;48.796;9.930;2023-03-01T06:57:25;47.65;;;20.98;;
36205;SDS011;22242;48.796;9.930;2023-03-01T06:59:52;40.83;;;20.05;;
36205;SDS011;22242;48.796;9.930;2023-03-01T07:02:21;40.20;;;19.50;;
36205;SDS011;22242;48.796;9.930;2023-03-01T07:04:48;43.60;;;19.25;;
36205;SDS011;22242;48.796;9.930;2023-03-01T07:07:16;45.33;;;20.45;;
36205;SDS011;22242;48.796;9.930;2023-03-01T07:09:44;42.88;;;20.10;;
36205;SDS011;22242;48.796;9.930;2023-03-01T07:12:10;40.97;;;19.42;;
36205;SDS011;22242;48.796;9.930;2023-03-01T07:14:38;39.22;;;18.98;;
36205;SDS011;22242;48.796;9.930;2023-03-01T07:17:05;41.33;;;20.77;;
36205;SDS011;22242;48.796;9.930;2023-03-01T07:19:33;45.22;;;19.98;;
36205;SDS011;22242;48.796;9.930;2023-03-01T07:22:00;36.70;;;18.08;;
36205;SDS011;22242;48.796;9.930;2023-03-01T07:24:29;36.92;;;18.00;;
36205;SDS011;22242;48.796;9.930;2023-03-01T07:26:56;36.17;;;17.30;;
36205;SDS011;22242;48.796;9.930;2023-03-01T07:29:23;27.95;;;14.90;;
36205;SDS011;22242;48.796;9.930;2023-03-01T07:31:50;32.88;;;17.75;;
36205;SDS011;22242;48.796;9.930;2023-03-01T07:34:18;32.55;;;15.50;;
36205;SDS011;22242;48.796;9.930;2023-03-01T07:36:46;29.67;;;17.10;;
36205;SDS011;22242;48.796;9.930;2023-03-01T07:39:13;31.25;;;16.83;;
36205;SDS011;22242;48.796;9.930;2023-03-01T07:41:40;29.17;;;16.13;;
36205;SDS011;22242;48.796;9.930;2023-03-01T07:44:08;29.83;;;17.23;;
36205;SDS011;22242;48.796;9.930;2023-03-01T07:46:35;33.75;;;16.70;;
36205;SDS011;22242;48.796;9.930;2023-03-01T07:49:02;29.08;;;16.02;;
36205;SDS011;22242;48.796;9.930;2023-03-01T07:51:30;27.52;;;15.48;;
36205;SDS011;22242;48.796;9.930;2023-03-01T07:53:58;30.23;;;16.33;;
36205;SDS011;22242;48.796;9.930;2023-03-01T07:56:25;28.80;;;15.98;;
36205;SDS011;22242;48.796;9.930;2023-03-01T07:58:52;25.88;;;16.75;;
36205;SDS011;22242;48.796;9.930;2023-03-01T08:01:22;29.63;;;17.45;;
36205;SDS011;22242;48.796;9.930;2023-03-01T08:03:49;30.42;;;17.17;;
36205;SDS011;22242;48.796;9.930;2023-03-01T08:06:16;34.00;;;16.90;;
36205;SDS011;22242;48.796;9.930;2023-03-01T08:08:44;27.75;;;15.63;;
36205;SDS011;22242;48.796;9.930;2023-03-01T08:11:14;27.45;;;16.60;;
36205;SDS011;22242;48.796;9.930;2023-03-01T08:13:42;31.42;;;16.60;;
36205;SDS011;22242;48.796;9.930;2023-03-01T08:16:10;26.67;;;16.13;;
36205;SDS011;22242;48.796;9.930;2023-03-01T08:18:38;27.77;;;16.10;;
36205;SDS011;22242;48.796;9.930;2023-03-01T08:21:06;27.35;;;15.98;;
36205;SDS011;22242;48.796;9.930;2023-03-01T08:23:34;28.67;;;17.98;;
36205;SDS011;22242;48.796;9.930;2023-03-01T08:26:05;25.85;;;14.93;;
36205;SDS011;22242;48.796;9.930;2023-03-01T08:28:35;31.08;;;19.98;;
36205;SDS011;22242;48.796;9.930;2023-03-01T08:31:02;33.13;;;19.08;;
36205;SDS011;22242;48.796;9.930;2023-03-01T08:33:30;31.80;;;17.65;;
36205;SDS011;22242;48.796;9.930;2023-03-01T08:36:03;26.50;;;16.05;;
36205;SDS011;22242;48.796;9.930;2023-03-01T08:38:32;28.08;;;16.15;;
36205;SDS011;22242;48.796;9.930;2023-03-01T08:40:59;26.60;;;16.10;;
36205;SDS011;22242;48.796;9.930;2023-03-01T08:43:27;26.23;;;16.33;;
36205;SDS011;22242;48.796;9.930;2023-03-01T08:45:56;23.98;;;15.00;;
36205;SDS011;22242;48.796;9.930;2023-03-01T08:48:23;22.20;;;15.00;;
36205;SDS011;22242;48.796;9.930;2023-03-01T08:50:51;24.15;;;14.95;;
36205;SDS011;22242;48.796;9.930;2023-03-01T08:53:18;24.27;;;14.55;;
36205;SDS011;22242;48.796;9.930;2023-03-01T08:55:45;22.27;;;14.88;;
36205;SDS011;22242;48.796;9.930;2023-03-01T08:58:12;24.45;;;14.85;;
36205;SDS011;22242;48.796;9.930;2023-03-01T09:00:39;26.08;;;15.45;;
36205;SDS011;22242;48.796;9.930;2023-03-01T09:03:07;23.33;;;14.63;;
36205;SDS011;22242;48.796;9.930;2023-03-01T09:05:35;24.33;;;14.77;;
36205;SDS011;22242;48.796;9.930;2023-03-01T09:08:02;21.05;;;13.82;;
36205;SDS011;22242;48.796;9.930;2023-03-01T09:10:29;24.95;;;14.98;;
36205;SDS011;22242;48.796;9.930;2023-03-01T09:12:56;23.20;;;14.05;;
36205;SDS011;22242;48.796;9.930;2023-03-01T09:15:23;26.30;;;15.40;;
36205;SDS011;22242;48.796;9.930;2023-03-01T09:17:51;26.00;;;14.27;;
36205;SDS011;22242;48.796;9.930;2023-03-01T09:20:19;27.92;;;13.85;;
36205;SDS011;22242;48.796;9.930;2023-03-01T09:22:46;25.10;;;14.23;;
36205;SDS011;22242;48.796;9.930;2023-03-01T09:25:13;24.42;;;13.75;;
36205;SDS011;22242;48.796;9.930;2023-03-01T09:27:41;22.90;;;14.65;;
36205;SDS011;22242;48.796;9.930;2023-03-01T09:30:08;21.50;;;14.00;;
36205;SDS011;22242;48.796;9.930;2023-03-01T09:32:36;23.98;;;14.88;;
36205;SDS011;22242;48.796;9.930;2023-03-01T09:35:08;23.88;;;15.13;;
36205;SDS011;22242;48.796;9.930;2023-03-01T09:37:37;21.63;;;14.73;;
36205;SDS011;22242;48.796;9.930;2023-03-01T09:40:05;18.73;;;12.95;;
36205;SDS011;22242;48.796;9.930;2023-03-01T09:42:45;23.02;;;14.93;;
36205;SDS011;22242;48.796;9.930;2023-03-01T09:45:18;23.70;;;14.70;;
36205;SDS011;22242;48.796;9.930;2023-03-01T09:47:53;20.90;;;14.07;;
36205;SDS011;22242;48.796;9.930;2023-03-01T09:50:21;20.90;;;13.70;;
36205;SDS011;22242;48.796;9.930;2023-03-01T09:52:53;21.98;;;14.48;;
36205;SDS011;22242;48.796;9.930;2023-03-01T09:55:27;23.85;;;15.48;;
36205;SDS011;22242;48.796;9.930;2023-03-01T09:58:00;23.77;;;13.90;;
36205;SDS011;22242;48.796;9.930;2023-03-01T10:00:50;20.25;;;13.68;;
36205;SDS011;22242;48.796;9.930;2023-03-01T10:03:20;24.83;;;14.75;;
36205;SDS011;22242;48.796;9.930;2023-03-01T10:05:54;20.98;;;14.20;;
36205;SDS011;22242;48.796;9.930;2023-03-01T10:11:01;24.88;;;15.05;;
36205;SDS011;22242;48.796;9.930;2023-03-01T10:13:33;26.58;;;14.82;;
36205;SDS011;22242;48.796;9.930;2023-03-01T10:16:10;31.30;;;18.35;;
36205;SDS011;22242;48.796;9.930;2023-03-01T10:18:41;21.00;;;14.82;;
36205;SDS011;22242;48.796;9.930;2023-03-01T10:21:14;22.90;;;15.10;;
36205;SDS011;22242;48.796;9.930;2023-03-01T10:23:45;24.33;;;16.15;;
36205;SDS011;22242;48.796;9.930;2023-03-01T10:26:17;22.08;;;14.65;;
36205;SDS011;22242;48.796;9.930;2023-03-01T10:29:02;24.17;;;15.00;;
36205;SDS011;22242;48.796;9.930;2023-03-01T10:31:36;23.48;;;14.60;;
36205;SDS011;22242;48.796;9.930;2023-03-01T10:34:09;26.92;;;16.65;;
36205;SDS011;22242;48.796;9.930;2023-03-01T10:36:39;21.27;;;14.18;;
36205;SDS011;22242;48.796;9.930;2023-03-01T10:39:12;23.92;;;13.82;;
36205;SDS011;22242;48.796;9.930;2023-03-01T10:41:51;22.13;;;14.02;;
36205;SDS011;22242;48.796;9.930;2023-03-01T10:44:36;23.33;;;14.23;;
36205;SDS011;22242;48.796;9.930;2023-03-01T10:47:08;22.25;;;13.75;;
36205;SDS011;22242;48.796;9.930;2023-03-01T10:49:52;24.50;;;14.85;;
36205;SDS011;22242;48.796;9.930;2023-03-01T10:52:23;22.65;;;14.20;;
36205;SDS011;22242;48.796;9.930;2023-03-01T10:54:54;21.10;;;13.90;;
36205;SDS011;22242;48.796;9.930;2023-03-01T10:57:30;22.23;;;13.70;;
36205;SDS011;22242;48.796;9.930;2023-03-01T11:00:13;22.27;;;13.98;;
36205;SDS011;22242;48.796;9.930;2023-03-01T11:02:46;22.55;;;13.98;;
36205;SDS011;22242;48.796;9.930;2023-03-01T11:05:20;22.25;;;14.43;;
36205;SDS011;22242;48.796;9.930;2023-03-01T11:07:51;25.20;;;13.52;;
36205;SDS011;22242;48.796;9.930;2023-03-01T11:10:23;24.23;;;15.10;;
36205;SDS011;22242;48.796;9.930;2023-03-01T11:12:52;25.05;;;14.13;;
36205;SDS011;22242;48.796;9.930;2023-03-01T11:15:20;21.73;;;14.00;;
36205;SDS011;22242;48.796;9.930;2023-03-01T11:17:50;28.00;;;14.05;;
36205;SDS011;22242;48.796;9.930;2023-03-01T11:20:20;20.63;;;13.93;;
36205;SDS011;22242;48.796;9.930;2023-03-01T11:22:52;22.50;;;14.88;;
36205;SDS011;22242;48.796;9.930;2023-03-01T11:25:23;23.60;;;15.40;;
36205;SDS011;22242;48.796;9.930;2023-03-01T11:27:53;22.65;;;14.15;;
36205;SDS011;22242;48.796;9.930;2023-03-01T11:30:23;23.58;;;15.25;;
36205;SDS011;22242;48.796;9.930;2023-03-01T11:33:01;20.42;;;13.45;;
36205;SDS011;22242;48.796;9.930;2023-03-01T11:35:37;18.48;;;12.50;;
36205;SDS011;22242;48.796;9.930;2023-03-01T11:38:12;17.20;;;12.35;;
36205;SDS011;22242;48.796;9.930;2023-03-01T11:40:48;18.38;;;12.82;;
36205;SDS011;22242;48.796;9.930;2023-03-01T11:43:21;20.15;;;12.63;;
36205;SDS011;22242;48.796;9.930;2023-03-01T11:49:35;20.45;;;12.60;;
36205;SDS011;22242;48.796;9.930;2023-03-01T11:52:25;19.75;;;11.82;;
36205;SDS011;22242;48.796;9.930;2023-03-01T11:55:07;20.77;;;11.80;;
36205;SDS011;22242;48.796;9.930;2023-03-01T11:57:53;23.77;;;14.43;;
36205;SDS011;22242;48.796;9.930;2023-03-01T12:00:37;25.45;;;14.65;;
36205;SDS011;22242;48.796;9.930;2023-03-01T12:03:36;21.30;;;12.90;;
36205;SDS011;22242;48.796;9.930;2023-03-01T12:09:16;20.15;;;12.15;;
36205;SDS011;22242;48.796;9.930;2023-03-01T12:11:53;22.80;;;13.18;;
36205;SDS011;22242;48.796;9.930;2023-03-01T12:17:24;17.63;;;11.80;;
36205;SDS011;22242;48.796;9.930;2023-03-01T12:20:19;20.73;;;12.38;;
36205;SDS011;22242;48.796;9.930;2023-03-01T12:22:56;18.38;;;11.48;;
36205;SDS011;22242;48.796;9.930;2023-03-01T12:25:43;18.13;;;12.27;;
36205;SDS011;22242;48.796;9.930;2023-03-01T12:28:18;23.02;;;12.95;;
36205;SDS011;22242;48.796;9.930;2023-03-01T12:31:05;23.40;;;12.13;;
36205;SDS011;22242;48.796;9.930;2023-03-01T12:33:45;25.58;;;13.02;;
36205;SDS011;22242;48.796;9.930;2023-03-01T12:36:31;25.08;;;15.25;;
36205;SDS011;22242;48.796;9.930;2023-03-01T12:39:19;23.65;;;14.27;;
36205;SDS011;22242;48.796;9.930;2023-03-01T12:42:02;26.98;;;14.02;;
36205;SDS011;22242;48.796;9.930;2023-03-01T12:44:46;24.70;;;14.38;;
36205;SDS011;22242;48.796;9.930;2023-03-01T12:47:38;27.42;;;15.02;;
36205;SDS011;22242;48.796;9.930;2023-03-01T12:50:16;27.08;;;14.40;;
36205;SDS011;22242;48.796;9.930;2023-03-01T12:52:47;25.17;;;15.20;;
36205;SDS011;22242;48.796;9.930;2023-03-01T12:55:18;24.27;;;14.93;;
36205;SDS011;22242;48.796;9.930;2023-03-01T12:57:53;26.83;;;15.27;;
36205;SDS011;22242;48.796;9.930;2023-03-01T13:00:30;26.13;;;15.35;;
36205;SDS011;22242;48.796;9.930;2023-03-01T13:03:05;23.60;;;15.15;;
36205;SDS011;22242;48.796;9.930;2023-03-01T13:05:42;27.13;;;15.05;;
36205;SDS011;22242;48.796;9.930;2023-03-01T13:08:20;30.40;;;14.95;;
36205;SDS011;22242;48.796;9.930;2023-03-01T13:10:54;25.50;;;15.20;;
36205;SDS011;22242;48.796;9.930;2023-03-01T13:13:25;25.80;;;15.63;;
36205;SDS011;22242;48.796;9.930;2023-03-01T13:15:54;27.58;;;15.93;;
36205;SDS011;22242;48.796;9.930;2023-03-01T13:18:33;29.52;;;15.70;;
36205;SDS011;22242;48.796;9.930;2023-03-01T13:21:03;30.25;;;16.70;;
36205;SDS011;22242;48.796;9.930;2023-03-01T13:23:36;26.98;;;16.17;;
36205;SDS011;22242;48.796;9.930;2023-03-01T13:28:52;27.55;;;16.42;;
36205;SDS011;22242;48.796;9.930;2023-03-01T13:34:41;25.73;;;14.55;;
36205;SDS011;22242;48.796;9.930;2023-03-01T13:37:20;27.23;;;15.05;;
36205;SDS011;22242;48.796;9.930;2023-03-01T13:39:51;27.45;;;14.77;;
36205;SDS011;22242;48.796;9.930;2023-03-01T13:42:35;25.30;;;14.32;;
36205;SDS011;22242;48.796;9.930;2023-03-01T13:45:19;25.75;;;14.90;;
36205;SDS011;22242;48.796;9.930;2023-03-01T13:47:54;27.33;;;15.75;;
36205;SDS011;22242;48.796;9.930;2023-03-01T13:52:55;28.02;;;15.25;;
36205;SDS011;22242;48.796;9.930;2023-03-01T13:55:26;24.45;;;14.82;;
36205;SDS011;22242;48.796;9.930;2023-03-01T13:57:59;24.52;;;15.02;;
36205;SDS011;22242;48.796;9.930;2023-03-01T14:00:32;26.58;;;14.90;;
36205;SDS011;22242;48.796;9.930;2023-03-01T14:03:03;25.40;;;14.48;;
36205;SDS011;22242;48.796;9.930;2023-03-01T14:05:36;24.42;;;14.43;;
36205;SDS011;22242;48.796;9.930;2023-03-01T14:08:04;26.15;;;14.48;;
36205;SDS011;22242;48.796;9.930;2023-03-01T14:10:44;23.00;;;13.95;;
36205;SDS011;22242;48.796;9.930;2023-03-01T14:13:23;25.25;;;14.38;;
36205;SDS011;22242;48.796;9.930;2023-03-01T14:16:09;25.20;;;14.77;;
36205;SDS011;22242;48.796;9.930;2023-03-01T14:18:47;27.90;;;14.73;;
36205;SDS011;22242;48.796;9.930;2023-03-01T14:21:25;23.98;;;13.55;;
36205;SDS011;22242;48.796;9.930;2023-03-01T14:23:52;27.85;;;15.10;;
36205;SDS011;22242;48.796;9.930;2023-03-01T14:26:20;26.40;;;15.05;;
36205;SDS011;22242;48.796;9.930;2023-03-01T14:28:48;24.13;;;14.38;;
36205;SDS011;22242;48.796;9.930;2023-03-01T14:31:29;28.48;;;15.50;;
36205;SDS011;22242;48.796;9.930;2023-03-01T14:34:00;28.08;;;14.45;;
36205;SDS011;22242;48.796;9.930;2023-03-01T14:36:29;24.33;;;14.02;;
36205;SDS011;22242;48.796;9.930;2023-03-01T14:38:57;25.02;;;13.88;;
36205;SDS011;22242;48.796;9.930;2023-03-01T14:41:30;26.88;;;14.70;;
36205;SDS011;22242;48.796;9.930;2023-03-01T14:44:00;25.38;;;13.88;;
36205;SDS011;22242;48.796;9.930;2023-03-01T14:46:30;26.70;;;13.23;;
36205;SDS011;22242;48.796;9.930;2023-03-01T14:49:01;23.60;;;15.05;;
36205;SDS011;22242;48.796;9.930;2023-03-01T14:51:32;28.33;;;14.13;;
36205;SDS011;22242;48.796;9.930;2023-03-01T14:54:02;22.52;;;13.20;;
36205;SDS011;22242;48.796;9.930;2023-03-01T14:56:43;25.65;;;13.68;;
36205;SDS011;22242;48.796;9.930;2023-03-01T14:59:11;21.45;;;13.05;;
36205;SDS011;22242;48.796;9.930;2023-03-01T15:01:39;29.48;;;14.90;;
36205;SDS011;22242;48.796;9.930;2023-03-01T15:04:09;31.88;;;13.60;;
36205;SDS011;22242;48.796;9.930;2023-03-01T15:06:41;26.55;;;14.23;;